Time,TemperatureF,DewpointF,PressureIn,WindDirection,WindDirectionDegrees,WindSpeedMPH,WindSpeedGustMPH,Humidity,HourlyPrecipIn,Conditions,Clouds,dailyrainin,SoftwareType,DateUTC
2013-05-22 00:00:00,72.0,27.5,29.80,North,-999,0.0,0.0,19,0.00,,,-99.99,WeatherLink 5.7,2013-05-22 05:00:00,
2013-05-22 00:30:00,71.9,28.6,29.80,North,-999,0.0,0.0,20,0.00,,,-99.99,WeatherLink 5.7,2013-05-22 05:30:00,
2013-05-22 01:00:00,71.7,28.5,29.81,North,-999,0.0,0.0,20,0.00,,,-99.99,WeatherLink 5.7,2013-05-22 06:00:00,
2013-05-22 01:30:00,70.8,27.7,29.80,North,-999,0.0,0.0,20,0.00,,,-99.99,WeatherLink 5.7,2013-05-22 06:30:00,
2013-05-22 02:00:00,70.6,28.7,29.79,North,-999,0.0,0.0,21,0.00,,,-99.99,WeatherLink 5.7,2013-05-22 07:00:00,
2013-05-22 02:30:00,70.3,28.5,29.78,North,-999,0.0,0.0,21,0.00,,,-99.99,WeatherLink 5.7,2013-05-22 07:30:00,
2013-05-22 03:00:00,69.8,28.1,29.78,North,-999,0.0,0.0,21,0.00,,,-99.99,WeatherLink 5.7,2013-05-22 08:00:00,
2013-05-22 03:30:00,69.0,28.5,29.78,North,-999,0.0,0.0,22,0.00,,,-99.99,WeatherLink 5.7,2013-05-22 08:30:00,
2013-05-22 04:00:00,68.9,28.5,29.78,North,-999,0.0,0.0,22,0.00,,,-99.99,WeatherLink 5.7,2013-05-22 09:00:00,
2013-05-22 04:30:00,68.6,28.2,29.78,North,-999,0.0,0.0,22,0.00,,,-99.99,WeatherLink 5.7,2013-05-22 09:30:00,
2013-05-22 05:00:00,68.7,28.3,29.78,North,-999,0.0,0.0,22,0.00,,,-99.99,WeatherLink 5.7,2013-05-22 10:00:00,
2013-05-22 05:30:00,68.4,28.0,29.79,North,-999,0.0,0.0,22,0.00,,,-99.99,WeatherLink 5.7,2013-05-22 10:30:00,
2013-05-22 06:00:00,67.4,27.2,29.80,North,-999,0.0,0.0,22,0.00,,,-99.99,WeatherLink 5.7,2013-05-22 11:00:00,
2013-05-22 06:30:00,68.7,28.3,29.80,North,-999,0.0,0.0,22,0.00,,,-99.99,WeatherLink 5.7,2013-05-22 11:30:00,
2013-05-22 07:00:00,70.2,29.5,29.82,North,-999,0.0,0.0,22,0.00,,,-99.99,WeatherLink 5.7,2013-05-22 12:00:00,
2013-05-22 07:30:00,71.2,30.4,29.83,North,-999,0.0,0.0,22,0.00,,,-99.99,WeatherLink 5.7,2013-05-22 12:30:00,
2013-05-22 08:00:00,72.0,31.0,29.84,WNW,292,0.0,1.0,22,0.00,,,-99.99,WeatherLink 5.7,2013-05-22 13:00:00,
2013-05-22 08:30:00,72.6,31.5,29.86,WNW,292,3.0,13.0,22,0.00,,,-99.99,WeatherLink 5.7,2013-05-22 13:30:00,
2013-05-22 09:00:00,72.2,31.2,29.88,NNW,337,4.0,12.0,22,0.00,,,-99.99,WeatherLink 5.7,2013-05-22 14:00:00,
2013-05-22 09:30:00,71.9,28.6,29.93,NW,315,6.0,19.0,20,0.03,,,-99.99,WeatherLink 5.7,2013-05-22 14:30:00,
2013-05-22 10:00:00,69.3,26.5,29.92,NW,315,4.0,19.0,20,0.21,,,-99.99,WeatherLink 5.7,2013-05-22 15:00:00,
2013-05-22 10:30:00,69.6,27.9,29.89,NW,315,0.0,1.0,21,0.20,,,-99.99,WeatherLink 5.7,2013-05-22 15:30:00,
2013-05-22 11:00:00,71.5,28.3,29.86,North,-999,0.0,0.0,20,0.02,,,-99.99,WeatherLink 5.7,2013-05-22 16:00:00,
2013-05-22 11:30:00,72.9,29.4,29.80,North,-999,0.0,0.0,20,0.00,,,-99.99,WeatherLink 5.7,2013-05-22 16:30:00,
2013-05-22 12:00:00,73.7,28.8,29.82,North,-999,0.0,0.0,19,0.00,,,-99.99,WeatherLink 5.7,2013-05-22 17:00:00,
2013-05-22 12:30:00,75.6,30.4,29.81,North,-999,0.0,0.0,19,0.00,,,-99.99,WeatherLink 5.7,2013-05-22 17:30:00,
2013-05-22 13:00:00,76.3,37.9,29.81,North,-999,0.0,0.0,25,0.00,,,-99.99,WeatherLink 5.7,2013-05-22 18:00:00,
2013-05-22 13:30:00,78.0,41.3,29.80,North,-999,0.0,0.0,27,0.00,,,-99.99,WeatherLink 5.7,2013-05-22 18:30:00,
2013-05-22 14:00:00,79.6,53.8,29.80,North,-999,0.0,0.0,41,0.00,,,-99.99,WeatherLink 5.7,2013-05-22 19:00:00,
2013-05-22 14:30:00,79.8,62.2,29.79,North,-999,0.0,0.0,55,0.00,,,-99.99,WeatherLink 5.7,2013-05-22 19:30:00,
2013-05-22 15:00:00,80.7,65.0,29.78,North,-999,0.0,0.0,59,0.00,,,-99.99,WeatherLink 5.7,2013-05-22 20:00:00,
2013-05-22 15:30:00,81.4,66.2,29.77,North,-999,0.0,0.0,60,0.00,,,-99.99,WeatherLink 5.7,2013-05-22 20:30:00,
2013-05-22 16:00:00,81.1,64.9,29.77,North,-999,0.0,0.0,58,0.00,,,-99.99,WeatherLink 5.7,2013-05-22 21:00:00,
2013-05-22 16:30:00,81.6,65.4,29.78,North,-999,0.0,0.0,58,0.00,,,-99.99,WeatherLink 5.7,2013-05-22 21:30:00,
2013-05-22 17:00:00,82.4,66.6,29.79,North,-999,0.0,0.0,59,0.00,,,-99.99,WeatherLink 5.7,2013-05-22 22:00:00,
2013-05-22 17:30:00,81.5,64.8,29.79,SW,225,0.0,3.0,57,0.00,,,-99.99,WeatherLink 5.7,2013-05-22 22:30:00,
2013-05-22 18:00:00,80.8,62.6,29.79,SSW,202,1.0,5.0,54,0.00,,,-99.99,WeatherLink 5.7,2013-05-22 23:00:00,
2013-05-22 18:30:00,80.4,60.6,29.79,SW,225,1.0,5.0,51,0.00,,,-99.99,WeatherLink 5.7,2013-05-22 23:30:00,
2013-05-22 19:00:00,79.5,58.1,29.79,WSW,247,0.0,4.0,48,0.00,,,-99.99,WeatherLink 5.7,2013-05-23 00:00:00,
2013-05-22 19:30:00,78.6,50.9,29.80,North,-999,0.0,0.0,38,0.00,,,-99.99,WeatherLink 5.7,2013-05-23 00:30:00,
2013-05-22 20:00:00,76.8,43.0,29.81,North,-999,0.0,0.0,30,0.00,,,-99.99,WeatherLink 5.7,2013-05-23 01:00:00,
2013-05-22 20:30:00,75.0,33.6,29.82,North,-999,0.0,0.0,22,0.00,,,-99.99,WeatherLink 5.7,2013-05-23 01:30:00,
2013-05-22 21:00:00,73.8,28.9,29.82,North,-999,0.0,0.0,19,0.00,,,-99.99,WeatherLink 5.7,2013-05-23 02:00:00,
2013-05-22 21:30:00,73.1,27.0,29.82,North,-999,0.0,0.0,18,0.00,,,-99.99,WeatherLink 5.7,2013-05-23 02:30:00,
2013-05-22 22:00:00,72.5,26.5,29.83,North,-999,0.0,0.0,18,0.00,,,-99.99,WeatherLink 5.7,2013-05-23 03:00:00,
2013-05-22 22:30:00,72.3,27.7,29.84,North,-999,0.0,0.0,19,0.00,,,-99.99,WeatherLink 5.7,2013-05-23 03:30:00,
2013-05-22 23:00:00,71.5,28.3,29.83,North,-999,0.0,0.0,20,0.00,,,-99.99,WeatherLink 5.7,2013-05-23 04:00:00,
2013-05-22 23:30:00,71.1,28.0,29.84,North,-999,0.0,0.0,20,0.00,,,-99.99,WeatherLink 5.7,2013-05-23 04:30:00,